sensor_id;sensor_type;location;lat;lon;timestamp;pressure;altitude;pressure_sealevel;temperature;humidity
35489;BME280;21602;55.670;37.578;2023-05-02T00:01:32;99665.50;;;4.43;76.62
35489;BME280;21602;55.670;37.578;2023-05-02T00:03:58;99668.34;;;4.42;76.54
35489;BME280;21602;55.670;37.578;2023-05-02T00:06:23;99667.50;;;4.41;76.57
35489;BME280;21602;55.670;37.578;2023-05-02T00:08:49;99673.53;;;4.35;76.79
35489;BME280;21602;55.670;37.578;2023-05-02T00:11:14;99672.25;;;4.31;76.95
35489;BME280;21602;55.670;37.578;2023-05-02T00:13:40;99680.75;;;4.26;76.84
35489;BME280;21602;55.670;37.578;2023-05-02T00:16:05;99686.69;;;4.28;76.78
35489;BME280;21602;55.670;37.578;2023-05-02T00:18:31;99688.09;;;4.31;77.06
35489;BME280;21602;55.670;37.578;2023-05-02T00:20:57;99689.13;;;4.30;77.07
35489;BME280;21602;55.670;37.578;2023-05-02T00:23:22;99686.69;;;4.28;76.77
35489;BME280;21602;55.670;37.578;2023-05-02T00:25:48;99694.59;;;4.28;76.99
35489;BME280;21602;55.670;37.578;2023-05-02T00:28:14;99701.72;;;4.28;77.31
35489;BME280;21602;55.670;37.578;2023-05-02T00:30:43;99701.88;;;4.26;77.26
35489;BME280;21602;55.670;37.578;2023-05-02T00:33:09;99699.06;;;4.28;77.00
35489;BME280;21602;55.670;37.578;2023-05-02T00:35:36;99701.72;;;4.28;76.96
35489;BME280;21602;55.670;37.578;2023-05-02T00:38:02;99703.53;;;4.27;77.30
35489;BME280;21602;55.670;37.578;2023-05-02T00:40:27;99706.53;;;4.24;77.06
35489;BME280;21602;55.670;37.578;2023-05-02T00:42:53;99703.25;;;4.22;77.39
35489;BME280;21602;55.670;37.578;2023-05-02T00:45:18;99709.53;;;4.21;77.41
35489;BME280;21602;55.670;37.578;2023-05-02T00:47:44;99711.09;;;4.16;77.63
35489;BME280;21602;55.670;37.578;2023-05-02T00:50:10;99722.03;;;4.13;77.46
35489;BME280;21602;55.670;37.578;2023-05-02T00:52:36;99719.56;;;4.11;77.69
35489;BME280;21602;55.670;37.578;2023-05-02T00:55:02;99720.59;;;4.10;77.78
35489;BME280;21602;55.670;37.578;2023-05-02T00:57:29;99719.09;;;4.07;77.70
35489;BME280;21602;55.670;37.578;2023-05-02T00:59:54;99722.56;;;4.08;77.71
35489;BME280;21602;55.670;37.578;2023-05-02T01:02:31;99729.31;;;4.10;77.72
35489;BME280;21602;55.670;37.578;2023-05-02T01:05:07;99725.66;;;4.11;77.63
35489;BME280;21602;55.670;37.578;2023-05-02T01:10:08;99737.72;;;4.14;77.84
35489;BME280;21602;55.670;37.578;2023-05-02T01:12:49;99732.59;;;4.13;77.72
35489;BME280;21602;55.670;37.578;2023-05-02T01:15:18;99735.41;;;4.11;77.43
35489;BME280;21602;55.670;37.578;2023-05-02T01:17:45;99744.53;;;4.08;77.70
35489;BME280;21602;55.670;37.578;2023-05-02T01:20:12;99742.53;;;4.10;77.60
35489;BME280;21602;55.670;37.578;2023-05-02T01:22:39;99740.50;;;4.13;77.61
35489;BME280;21602;55.670;37.578;2023-05-02T01:25:28;99751.75;;;4.15;77.44
35489;BME280;21602;55.670;37.578;2023-05-02T01:30:26;99755.81;;;4.17;77.38
35489;BME280;21602;55.670;37.578;2023-05-02T01:32:52;99756.00;;;4.16;77.36
35489;BME280;21602;55.670;37.578;2023-05-02T01:35:18;99755.38;;;4.14;77.17
35489;BME280;21602;55.670;37.578;2023-05-02T01:37:44;99770.03;;;4.16;77.37
35489;BME280;21602;55.670;37.578;2023-05-02T01:40:12;99771.69;;;4.17;77.18
35489;BME280;21602;55.670;37.578;2023-05-02T01:42:38;99772.34;;;4.19;77.17
35489;BME280;21602;55.670;37.578;2023-05-02T01:45:04;99773.97;;;4.20;76.96
35489;BME280;21602;55.670;37.578;2023-05-02T01:47:32;99779.78;;;4.16;76.78
35489;BME280;21602;55.670;37.578;2023-05-02T01:50:00;99778.16;;;4.15;76.81
35489;BME280;21602;55.670;37.578;2023-05-02T01:52:28;99779.34;;;4.12;76.94
35489;BME280;21602;55.670;37.578;2023-05-02T01:54:56;99787.09;;;4.14;76.76
35489;BME280;21602;55.670;37.578;2023-05-02T01:57:23;99783.81;;;4.11;76.64
35489;BME280;21602;55.670;37.578;2023-05-02T01:59:49;99783.63;;;4.13;76.71
35489;BME280;21602;55.670;37.578;2023-05-02T02:02:15;99788.53;;;4.16;76.62
35489;BME280;21602;55.670;37.578;2023-05-02T02:04:43;99787.53;;;4.17;76.39
35489;BME280;21602;55.670;37.578;2023-05-02T02:07:12;99792.47;;;4.20;76.38
35489;BME280;21602;55.670;37.578;2023-05-02T02:09:38;99797.22;;;4.25;76.17
35489;BME280;21602;55.670;37.578;2023-05-02T02:14:37;99809.78;;;4.23;75.95
35489;BME280;21602;55.670;37.578;2023-05-02T02:17:04;99814.69;;;4.26;75.97
35489;BME280;21602;55.670;37.578;2023-05-02T02:19:31;99822.28;;;4.29;76.01
35489;BME280;21602;55.670;37.578;2023-05-02T02:21:57;99832.84;;;4.29;75.53
35489;BME280;21602;55.670;37.578;2023-05-02T02:24:23;99828.03;;;4.32;75.88
35489;BME280;21602;55.670;37.578;2023-05-02T02:26:50;99826.47;;;4.38;75.67
35489;BME280;21602;55.670;37.578;2023-05-02T02:29:16;99832.03;;;4.43;75.48
35489;BME280;21602;55.670;37.578;2023-05-02T02:31:41;99834.50;;;4.45;75.37
35489;BME280;21602;55.670;37.578;2023-05-02T02:34:07;99834.31;;;4.46;75.24
35489;BME280;21602;55.670;37.578;2023-05-02T02:41:38;99846.06;;;4.58;74.91
35489;BME280;21602;55.670;37.578;2023-05-02T02:54:49;99857.09;;;4.92;73.76
35489;BME280;21602;55.670;37.578;2023-05-02T02:57:38;99858.72;;;4.93;73.52
35489;BME280;21602;55.670;37.578;2023-05-02T03:00:06;99867.47;;;4.93;73.19
35489;BME280;21602;55.670;37.578;2023-05-02T03:02:33;99866.78;;;4.99;73.20
35489;BME280;21602;55.670;37.578;2023-05-02T03:05:00;99869.69;;;5.04;72.77
35489;BME280;21602;55.670;37.578;2023-05-02T03:07:28;99866.91;;;5.12;73.01
35489;BME280;21602;55.670;37.578;2023-05-02T03:09:55;99873.72;;;5.22;72.74
35489;BME280;21602;55.670;37.578;2023-05-02T03:12:22;99870.78;;;5.31;72.64
35489;BME280;21602;55.670;37.578;2023-05-02T03:14:49;99872.31;;;5.40;72.32
35489;BME280;21602;55.670;37.578;2023-05-02T03:17:16;99875.06;;;5.47;72.17
35489;BME280;21602;55.670;37.578;2023-05-02T03:19:41;99870.63;;;5.54;71.69
35489;BME280;21602;55.670;37.578;2023-05-02T03:22:07;99868.69;;;5.63;71.36
35489;BME280;21602;55.670;37.578;2023-05-02T03:24:34;99871.69;;;5.75;71.15
35489;BME280;21602;55.670;37.578;2023-05-02T03:27:01;99874.63;;;5.86;70.83
35489;BME280;21602;55.670;37.578;2023-05-02T03:29:32;99878.81;;;5.96;70.53
35489;BME280;21602;55.670;37.578;2023-05-02T03:31:58;99887.63;;;6.03;70.36
35489;BME280;21602;55.670;37.578;2023-05-02T03:34:24;99896.47;;;6.10;69.62
35489;BME280;21602;55.670;37.578;2023-05-02T03:36:51;99887.94;;;6.14;69.75
35489;BME280;21602;55.670;37.578;2023-05-02T03:39:18;99903.28;;;6.19;69.25
35489;BME280;21602;55.670;37.578;2023-05-02T03:41:44;99899.84;;;6.25;69.48
35489;BME280;21602;55.670;37.578;2023-05-02T03:44:13;99898.09;;;6.32;69.19
35489;BME280;21602;55.670;37.578;2023-05-02T03:46:40;99897.75;;;6.42;68.50
35489;BME280;21602;55.670;37.578;2023-05-02T03:49:09;99908.03;;;6.52;68.08
35489;BME280;21602;55.670;37.578;2023-05-02T03:51:35;99915.19;;;6.58;67.85
35489;BME280;21602;55.670;37.578;2023-05-02T03:54:01;99910.53;;;6.60;67.26
35489;BME280;21602;55.670;37.578;2023-05-02T03:56:27;99916.47;;;6.62;67.50
35489;BME280;21602;55.670;37.578;2023-05-02T03:59:06;99918.56;;;6.73;67.44
35489;BME280;21602;55.670;37.578;2023-05-02T04:01:34;99928.41;;;6.79;66.83
35489;BME280;21602;55.670;37.578;2023-05-02T04:04:14;99921.09;;;6.88;67.05
35489;BME280;21602;55.670;37.578;2023-05-02T04:06:45;99924.03;;;7.00;66.50
35489;BME280;21602;55.670;37.578;2023-05-02T04:09:11;99922.06;;;7.08;65.76
35489;BME280;21602;55.670;37.578;2023-05-02T04:11:51;99925.38;;;7.24;65.40
35489;BME280;21602;55.670;37.578;2023-05-02T04:14:17;99933.22;;;7.38;65.09
35489;BME280;21602;55.670;37.578;2023-05-02T04:16:49;99934.91;;;7.53;65.09
35489;BME280;21602;55.670;37.578;2023-05-02T04:19:20;99934.53;;;7.69;64.57
35489;BME280;21602;55.670;37.578;2023-05-02T04:21:45;99933.53;;;7.77;63.98
35489;BME280;21602;55.670;37.578;2023-05-02T04:24:13;99936.63;;;7.87;63.62
35489;BME280;21602;55.670;37.578;2023-05-02T04:26:39;99942.78;;;7.94;63.67
35489;BME280;21602;55.670;37.578;2023-05-02T04:29:09;99943.38;;;7.96;62.02
35489;BME280;21602;55.670;37.578;2023-05-02T04:31:35;99952.78;;;7.92;61.89
35489;BME280;21602;55.670;37.578;2023-05-02T04:34:00;99946.88;;;7.96;62.20
35489;BME280;21602;55.670;37.578;2023-05-02T04:36:31;99944.84;;;8.05;62.14
35489;BME280;21602;55.670;37.578;2023-05-02T04:38:58;99951.22;;;8.17;61.63
35489;BME280;21602;55.670;37.578;2023-05-02T04:41:24;99953.25;;;8.29;61.75
35489;BME280;21602;55.670;37.578;2023-05-02T04:43:56;99962.91;;;8.43;61.13
35489;BME280;21602;55.670;37.578;2023-05-02T04:46:23;99958.41;;;8.57;60.62
35489;BME280;21602;55.670;37.578;2023-05-02T04:48:48;99955.53;;;8.71;60.52
35489;BME280;21602;55.670;37.578;2023-05-02T04:51:14;99966.16;;;8.85;60.05
35489;BME280;21602;55.670;37.578;2023-05-02T04:53:40;99964.94;;;8.94;58.97
35489;BME280;21602;55.670;37.578;2023-05-02T04:56:07;99958.34;;;9.03;58.67
35489;BME280;21602;55.670;37.578;2023-05-02T04:58:35;99969.38;;;9.13;58.64
35489;BME280;21602;55.670;37.578;2023-05-02T05:01:05;99964.03;;;9.20;57.60
35489;BME280;21602;55.670;37.578;2023-05-02T05:03:30;99968.31;;;9.28;57.06
35489;BME280;21602;55.670;37.578;2023-05-02T05:05:58;99970.59;;;9.31;56.51
35489;BME280;21602;55.670;37.578;2023-05-02T05:08:24;99966.88;;;9.32;56.17
35489;BME280;21602;55.670;37.578;2023-05-02T05:10:50;99973.03;;;9.32;56.66
35489;BME280;21602;55.670;37.578;2023-05-02T05:13:17;99978.16;;;9.27;55.79
35489;BME280;21602;55.670;37.578;2023-05-02T05:15:46;99976.09;;;9.29;56.13
35489;BME280;21602;55.670;37.578;2023-05-02T05:18:12;99976.91;;;9.36;55.81
35489;BME280;21602;55.670;37.578;2023-05-02T05:20:38;99974.22;;;9.43;55.68
35489;BME280;21602;55.670;37.578;2023-05-02T05:23:04;99972.94;;;9.52;56.00
35489;BME280;21602;55.670;37.578;2023-05-02T05:25:29;99977.25;;;9.53;54.94
35489;BME280;21602;55.670;37.578;2023-05-02T05:27:58;99977.47;;;9.52;55.10
35489;BME280;21602;55.670;37.578;2023-05-02T05:30:24;99981.34;;;9.56;55.21
35489;BME280;21602;55.670;37.578;2023-05-02T05:32:51;99974.56;;;9.60;54.69
35489;BME280;21602;55.670;37.578;2023-05-02T05:35:17;99980.69;;;9.67;53.96
35489;BME280;21602;55.670;37.578;2023-05-02T05:37:43;99978.81;;;9.74;53.38
35489;BME280;21602;55.670;37.578;2023-05-02T05:40:11;99978.38;;;9.77;52.70
35489;BME280;21602;55.670;37.578;2023-05-02T05:42:41;99980.63;;;9.80;52.92
35489;BME280;21602;55.670;37.578;2023-05-02T05:45:12;99981.44;;;9.81;52.58
35489;BME280;21602;55.670;37.578;2023-05-02T05:47:38;99981.84;;;9.78;52.03
35489;BME280;21602;55.670;37.578;2023-05-02T05:50:04;99983.88;;;9.82;51.54
35489;BME280;21602;55.670;37.578;2023-05-02T05:52:30;99974.44;;;9.86;51.64
35489;BME280;21602;55.670;37.578;2023-05-02T05:55:00;99971.75;;;9.86;52.58
35489;BME280;21602;55.670;37.578;2023-05-02T05:57:27;99976.63;;;9.96;52.17
35489;BME280;21602;55.670;37.578;2023-05-02T05:59:54;99978.34;;;10.15;51.63
35489;BME280;21602;55.670;37.578;2023-05-02T06:02:20;99984.91;;;10.26;49.50
35489;BME280;21602;55.670;37.578;2023-05-02T06:04:46;99981.59;;;10.31;49.20
35489;BME280;21602;55.670;37.578;2023-05-02T06:07:13;99976.84;;;10.33;48.59
35489;BME280;21602;55.670;37.578;2023-05-02T06:09:39;99977.63;;;10.40;49.19
35489;BME280;21602;55.670;37.578;2023-05-02T06:12:04;99984.75;;;10.46;48.06
35489;BME280;21602;55.670;37.578;2023-05-02T06:14:31;99987.38;;;10.52;48.59
35489;BME280;21602;55.670;37.578;2023-05-02T06:17:00;99985.84;;;10.38;46.79
35489;BME280;21602;55.670;37.578;2023-05-02T06:19:26;99984.78;;;10.39;47.12
35489;BME280;21602;55.670;37.578;2023-05-02T06:21:52;99985.25;;;10.36;46.20
35489;BME280;21602;55.670;37.578;2023-05-02T06:24:18;99976.78;;;10.39;47.19
35489;BME280;21602;55.670;37.578;2023-05-02T06:26:43;99985.97;;;10.50;47.21
35489;BME280;21602;55.670;37.578;2023-05-02T06:29:09;99976.84;;;10.58;46.92
35489;BME280;21602;55.670;37.578;2023-05-02T06:31:34;99981.53;;;10.62;46.85
35489;BME280;21602;55.670;37.578;2023-05-02T06:34:00;99984.00;;;10.64;46.45
35489;BME280;21602;55.670;37.578;2023-05-02T06:36:25;99982.91;;;10.71;46.09
35489;BME280;21602;55.670;37.578;2023-05-02T06:38:51;99983.06;;;10.76;46.56
35489;BME280;21602;55.670;37.578;2023-05-02T06:41:17;99986.34;;;10.79;45.79
35489;BME280;21602;55.670;37.578;2023-05-02T06:43:43;99986.66;;;10.89;45.69
35489;BME280;21602;55.670;37.578;2023-05-02T06:46:08;99979.84;;;10.93;45.26
35489;BME280;21602;55.670;37.578;2023-05-02T06:48:34;99984.22;;;10.87;44.70
35489;BME280;21602;55.670;37.578;2023-05-02T06:51:00;99987.44;;;10.71;44.31
35489;BME280;21602;55.670;37.578;2023-05-02T06:53:28;99992.03;;;10.64;44.50
35489;BME280;21602;55.670;37.578;2023-05-02T06:55:54;99992.84;;;10.64;44.22
35489;BME280;21602;55.670;37.578;2023-05-02T06:58:19;99990.75;;;10.66;44.66
35489;BME280;21602;55.670;37.578;2023-05-02T07:00:45;99991.31;;;10.75;44.85
35489;BME280;21602;55.670;37.578;2023-05-02T07:03:12;99990.47;;;10.74;43.99
35489;BME280;21602;55.670;37.578;2023-05-02T07:05:38;99995.53;;;10.58;43.87
35489;BME280;21602;55.670;37.578;2023-05-02T07:08:04;100000.88;;;10.58;44.38
35489;BME280;21602;55.670;37.578;2023-05-02T07:10:29;99998.03;;;10.52;44.03
35489;BME280;21602;55.670;37.578;2023-05-02T07:12:55;99997.41;;;10.57;44.52
35489;BME280;21602;55.670;37.578;2023-05-02T07:15:21;99995.34;;;10.59;44.67
35489;BME280;21602;55.670;37.578;2023-05-02T07:17:46;99985.41;;;10.66;44.99
35489;BME280;21602;55.670;37.578;2023-05-02T07:20:12;100001.19;;;10.68;44.72
35489;BME280;21602;55.670;37.578;2023-05-02T07:22:38;99998.19;;;10.64;44.04
35489;BME280;21602;55.670;37.578;2023-05-02T07:25:04;100002.91;;;10.62;43.42
35489;BME280;21602;55.670;37.578;2023-05-02T07:27:30;99994.03;;;10.68;43.81
35489;BME280;21602;55.670;37.578;2023-05-02T07:29:55;99993.91;;;10.82;43.90
35489;BME280;21602;55.670;37.578;2023-05-02T07:32:21;99991.78;;;10.90;44.12
35489;BME280;21602;55.670;37.578;2023-05-02T07:34:47;99997.00;;;11.03;44.43
35489;BME280;21602;55.670;37.578;2023-05-02T07:37:12;99995.16;;;11.22;44.10
35489;BME280;21602;55.670;37.578;2023-05-02T07:39:38;99991.88;;;11.39;43.37
35489;BME280;21602;55.670;37.578;2023-05-02T07:42:03;99994.50;;;11.45;41.95
35489;BME280;21602;55.670;37.578;2023-05-02T07:44:31;99987.00;;;11.54;42.00
35489;BME280;21602;55.670;37.578;2023-05-02T07:46:56;99985.72;;;11.57;41.37
35489;BME280;21602;55.670;37.578;2023-05-02T07:49:22;99994.19;;;11.53;41.23
35489;BME280;21602;55.670;37.578;2023-05-02T07:51:47;99987.72;;;11.43;41.28
35489;BME280;21602;55.670;37.578;2023-05-02T07:54:19;99982.91;;;11.33;42.22
35489;BME280;21602;55.670;37.578;2023-05-02T07:56:45;99983.44;;;11.42;42.40
35489;BME280;21602;55.670;37.578;2023-05-02T07:59:11;99993.22;;;11.48;41.12
35489;BME280;21602;55.670;37.578;2023-05-02T08:01:37;99985.56;;;11.51;40.98
35489;BME280;21602;55.670;37.578;2023-05-02T08:04:03;99986.69;;;11.44;40.46
35489;BME280;21602;55.670;37.578;2023-05-02T08:06:29;99978.66;;;11.44;39.87
35489;BME280;21602;55.670;37.578;2023-05-02T08:08:55;99984.63;;;11.46;39.79
35489;BME280;21602;55.670;37.578;2023-05-02T08:11:21;99982.66;;;11.53;40.18
35489;BME280;21602;55.670;37.578;2023-05-02T08:13:47;99974.50;;;11.66;40.29
35489;BME280;21602;55.670;37.578;2023-05-02T08:16:13;99982.94;;;11.82;40.11
35489;BME280;21602;55.670;37.578;2023-05-02T08:18:38;99975.53;;;11.84;39.72
35489;BME280;21602;55.670;37.578;2023-05-02T08:21:05;99975.53;;;11.84;40.05
35489;BME280;21602;55.670;37.578;2023-05-02T08:23:30;99972.09;;;11.95;40.28
35489;BME280;21602;55.670;37.578;2023-05-02T08:25:56;99973.22;;;12.17;40.43
35489;BME280;21602;55.670;37.578;2023-05-02T08:28:21;99966.94;;;12.23;40.04
35489;BME280;21602;55.670;37.578;2023-05-02T08:30:47;99971.72;;;12.33;39.73
35489;BME280;21602;55.670;37.578;2023-05-02T08:33:13;99974.91;;;12.42;39.42
35489;BME280;21602;55.670;37.578;2023-05-02T08:35:39;99978.63;;;12.41;38.19
35489;BME280;21602;55.670;37.578;2023-05-02T08:38:04;99982.81;;;12.37;37.05
35489;BME280;21602;55.670;37.578;2023-05-02T08:40:31;99979.97;;;12.20;36.77
35489;BME280;21602;55.670;37.578;2023-05-02T08:42:59;99978.44;;;12.12;37.42
35489;BME280;21602;55.670;37.578;2023-05-02T08:45:25;99977.50;;;12.07;36.80
35489;BME280;21602;55.670;37.578;2023-05-02T08:47:51;99971.91;;;12.08;37.88
35489;BME280;21602;55.670;37.578;2023-05-02T08:50:16;99967.00;;;12.05;37.91
35489;BME280;21602;55.670;37.578;2023-05-02T08:52:43;99968.78;;;12.11;37.55
35489;BME280;21602;55.670;37.578;2023-05-02T08:55:10;99961.81;;;12.22;37.24
35489;BME280;21602;55.670;37.578;2023-05-02T08:57:36;99962.88;;;12.33;38.00
35489;BME280;21602;55.670;37.578;2023-05-02T09:00:02;99961.63;;;12.35;37.14
35489;BME280;21602;55.670;37.578;2023-05-02T09:04:58;99967.91;;;12.41;36.56
35489;BME280;21602;55.670;37.578;2023-05-02T09:07:31;99967.69;;;12.42;36.49
35489;BME280;21602;55.670;37.578;2023-05-02T09:10:06;99951.53;;;12.49;37.04
35489;BME280;21602;55.670;37.578;2023-05-02T09:12:32;99954.91;;;12.56;36.35
35489;BME280;21602;55.670;37.578;2023-05-02T09:15:08;99959.78;;;12.59;36.11
35489;BME280;21602;55.670;37.578;2023-05-02T09:17:43;99959.00;;;12.59;36.32
35489;BME280;21602;55.670;37.578;2023-05-02T09:20:10;99949.66;;;12.49;35.53
35489;BME280;21602;55.670;37.578;2023-05-02T09:22:36;99949.19;;;12.64;35.63
35489;BME280;21602;55.670;37.578;2023-05-02T09:25:01;99953.97;;;12.74;35.63
35489;BME280;21602;55.670;37.578;2023-05-02T09:27:28;99953.25;;;12.90;35.47
35489;BME280;21602;55.670;37.578;2023-05-02T09:30:17;99941.03;;;13.06;35.84
35489;BME280;21602;55.670;37.578;2023-05-02T09:32:46;99958.72;;;13.19;36.18
35489;BME280;21602;55.670;37.578;2023-05-02T09:35:12;99941.00;;;13.18;35.39
35489;BME280;21602;55.670;37.578;2023-05-02T09:37:38;99942.06;;;13.05;34.83
35489;BME280;21602;55.670;37.578;2023-05-02T09:40:07;99935.19;;;13.09;36.12
35489;BME280;21602;55.670;37.578;2023-05-02T09:42:33;99929.72;;;13.16;35.68
35489;BME280;21602;55.670;37.578;2023-05-02T09:45:00;99926.56;;;13.30;35.70
35489;BME280;21602;55.670;37.578;2023-05-02T09:47:26;99931.66;;;13.44;35.14
35489;BME280;21602;55.670;37.578;2023-05-02T09:49:51;99924.03;;;13.52;35.24
35489;BME280;21602;55.670;37.578;2023-05-02T09:52:17;99927.53;;;13.53;34.35
35489;BME280;21602;55.670;37.578;2023-05-02T09:54:45;99924.25;;;13.22;34.23
35489;BME280;21602;55.670;37.578;2023-05-02T09:57:11;99929.03;;;12.97;34.56
35489;BME280;21602;55.670;37.578;2023-05-02T09:59:40;99936.88;;;12.87;34.37
35489;BME280;21602;55.670;37.578;2023-05-02T10:02:06;99927.63;;;12.94;34.76
35489;BME280;21602;55.670;37.578;2023-05-02T10:04:33;99917.47;;;13.08;34.81
35489;BME280;21602;55.670;37.578;2023-05-02T10:07:00;99918.19;;;13.15;34.74
35489;BME280;21602;55.670;37.578;2023-05-02T10:09:26;99916.88;;;13.18;34.83
35489;BME280;21602;55.670;37.578;2023-05-02T10:11:54;99922.13;;;13.24;34.58
35489;BME280;21602;55.670;37.578;2023-05-02T10:14:20;99912.00;;;13.26;34.67
35489;BME280;21602;55.670;37.578;2023-05-02T10:19:17;99912.09;;;13.31;34.87
35489;BME280;21602;55.670;37.578;2023-05-02T10:21:45;99901.38;;;13.31;34.70
35489;BME280;21602;55.670;37.578;2023-05-02T10:24:11;99904.50;;;13.40;34.66
35489;BME280;21602;55.670;37.578;2023-05-02T10:26:37;99897.81;;;13.43;34.80
35489;BME280;21602;55.670;37.578;2023-05-02T10:29:03;99903.28;;;13.48;34.58
35489;BME280;21602;55.670;37.578;2023-05-02T10:31:32;99905.03;;;13.54;35.01
35489;BME280;21602;55.670;37.578;2023-05-02T10:33:58;99897.44;;;13.63;35.19
35489;BME280;21602;55.670;37.578;2023-05-02T10:36:24;99906.50;;;13.62;34.25
35489;BME280;21602;55.670;37.578;2023-05-02T10:38:49;99900.94;;;13.51;33.86
35489;BME280;21602;55.670;37.578;2023-05-02T10:41:17;99898.88;;;13.53;33.74
35489;BME280;21602;55.670;37.578;2023-05-02T10:43:47;99901.47;;;13.65;34.10
35489;BME280;21602;55.670;37.578;2023-05-02T10:51:29;99896.19;;;13.99;33.99
35489;BME280;21602;55.670;37.578;2023-05-02T10:54:41;99894.47;;;13.93;33.50
35489;BME280;21602;55.670;37.578;2023-05-02T10:57:03;99887.31;;;13.98;33.90
35489;BME280;21602;55.670;37.578;2023-05-02T10:59:29;99879.19;;;14.10;34.00
35489;BME280;21602;55.670;37.578;2023-05-02T11:01:55;99875.13;;;14.24;34.07
35489;BME280;21602;55.670;37.578;2023-05-02T11:04:21;99876.03;;;14.30;34.16
35489;BME280;21602;55.670;37.578;2023-05-02T11:09:29;99869.47;;;14.43;33.87
35489;BME280;21602;55.670;37.578;2023-05-02T11:11:55;99881.16;;;14.48;33.77
35489;BME280;21602;55.670;37.578;2023-05-02T11:19:24;99866.63;;;14.66;33.21
35489;BME280;21602;55.670;37.578;2023-05-02T11:21:50;99867.22;;;14.68;33.61
35489;BME280;21602;55.670;37.578;2023-05-02T11:29:50;99859.31;;;14.62;32.95
35489;BME280;21602;55.670;37.578;2023-05-02T11:32:16;99860.72;;;14.64;33.45
35489;BME280;21602;55.670;37.578;2023-05-02T11:34:41;99845.13;;;14.66;33.52
35489;BME280;21602;55.670;37.578;2023-05-02T11:37:11;99851.75;;;14.58;34.33
35489;BME280;21602;55.670;37.578;2023-05-02T11:39:37;99839.22;;;14.64;34.60
35489;BME280;21602;55.670;37.578;2023-05-02T11:42:03;99845.53;;;14.75;34.38
35489;BME280;21602;55.670;37.578;2023-05-02T11:44:28;99841.94;;;14.86;34.04
35489;BME280;21602;55.670;37.578;2023-05-02T11:46:54;99852.75;;;14.91;34.02
35489;BME280;21602;55.670;37.578;2023-05-02T11:49:20;99841.72;;;14.93;33.77
35489;BME280;21602;55.670;37.578;2023-05-02T11:51:45;99839.91;;;14.98;34.03
35489;BME280;21602;55.670;37.578;2023-05-02T11:54:17;99835.72;;;14.85;33.83
35489;BME280;21602;55.670;37.578;2023-05-02T11:56:43;99835.91;;;14.79;33.97
35489;BME280;21602;55.670;37.578;2023-05-02T11:59:09;99832.41;;;14.78;34.22
35489;BME280;21602;55.670;37.578;2023-05-02T12:01:35;99834.03;;;14.79;33.75
35489;BME280;21602;55.670;37.578;2023-05-02T12:04:07;99835.72;;;14.85;34.23
35489;BME280;21602;55.670;37.578;2023-05-02T12:06:33;99824.03;;;14.97;34.04
35489;BME280;21602;55.670;37.578;2023-05-02T12:09:08;99823.84;;;15.03;34.07
35489;BME280;21602;55.670;37.578;2023-05-02T12:11:35;99820.50;;;15.18;34.29
35489;BME280;21602;55.670;37.578;2023-05-02T12:14:02;99816.94;;;15.34;33.71
35489;BME280;21602;55.670;37.578;2023-05-02T12:16:28;99814.41;;;15.50;33.55
35489;BME280;21602;55.670;37.578;2023-05-02T12:18:53;99820.38;;;15.57;33.58
35489;BME280;21602;55.670;37.578;2023-05-02T12:21:22;99817.19;;;15.60;33.53
35489;BME280;21602;55.670;37.578;2023-05-02T12:23:47;99816.06;;;15.56;33.34
35489;BME280;21602;55.670;37.578;2023-05-02T12:26:20;99816.41;;;15.37;33.43
35489;BME280;21602;55.670;37.578;2023-05-02T12:28:49;99810.97;;;15.32;33.34
35489;BME280;21602;55.670;37.578;2023-05-02T12:31:15;99810.97;;;15.32;33.62
35489;BME280;21602;55.670;37.578;2023-05-02T12:33:41;99805.66;;;15.37;33.87
35489;BME280;21602;55.670;37.578;2023-05-02T12:36:07;99807.03;;;15.40;33.93
35489;BME280;21602;55.670;37.578;2023-05-02T12:38:35;99803.75;;;15.38;33.75
35489;BME280;21602;55.670;37.578;2023-05-02T12:41:00;99809.72;;;15.40;34.25
35489;BME280;21602;55.670;37.578;2023-05-02T12:43:26;99804.44;;;15.50;33.88
35489;BME280;21602;55.670;37.578;2023-05-02T12:46:08;99806.41;;;15.60;33.57
35489;BME280;21602;55.670;37.578;2023-05-02T12:48:33;99796.88;;;15.74;33.86
35489;BME280;21602;55.670;37.578;2023-05-02T12:50:59;99803.66;;;15.77;33.80
35489;BME280;21602;55.670;37.578;2023-05-02T12:53:38;99803.03;;;15.70;33.60
35489;BME280;21602;55.670;37.578;2023-05-02T12:56:04;99799.47;;;15.64;33.66
35489;BME280;21602;55.670;37.578;2023-05-02T12:58:37;99794.91;;;15.65;33.49
35489;BME280;21602;55.670;37.578;2023-05-02T13:01:04;99792.94;;;15.60;33.06
35489;BME280;21602;55.670;37.578;2023-05-02T13:03:31;99801.78;;;15.55;32.90
35489;BME280;21602;55.670;37.578;2023-05-02T13:05:57;99797.75;;;15.53;32.58
35489;BME280;21602;55.670;37.578;2023-05-02T13:08:22;99794.28;;;15.57;32.95
35489;BME280;21602;55.670;37.578;2023-05-02T13:10:48;99797.59;;;15.65;33.19
35489;BME280;21602;55.670;37.578;2023-05-02T13:13:13;99791.16;;;15.66;33.15
35489;BME280;21602;55.670;37.578;2023-05-02T13:15:40;99792.41;;;15.58;33.18
35489;BME280;21602;55.670;37.578;2023-05-02T13:18:05;99792.38;;;15.53;33.18
35489;BME280;21602;55.670;37.578;2023-05-02T13:20:31;99782.41;;;15.53;33.00
35489;BME280;21602;55.670;37.578;2023-05-02T13:22:58;99778.66;;;15.54;33.24
35489;BME280;21602;55.670;37.578;2023-05-02T13:25:23;99782.16;;;15.55;33.27
35489;BME280;21602;55.670;37.578;2023-05-02T13:27:50;99778.97;;;15.58;33.90
35489;BME280;21602;55.670;37.578;2023-05-02T13:30:15;99773.28;;;15.54;33.37
35489;BME280;21602;55.670;37.578;2023-05-02T13:32:41;99783.47;;;15.52;33.31
35489;BME280;21602;55.670;37.578;2023-05-02T13:35:07;99782.69;;;15.57;33.56
35489;BME280;21602;55.670;37.578;2023-05-02T13:37:33;99775.19;;;15.59;33.49
35489;BME280;21602;55.670;37.578;2023-05-02T13:39:58;99776.78;;;15.55;33.67
35489;BME280;21602;55.670;37.578;2023-05-02T13:42:24;99766.53;;;15.57;33.77